sensor_id;sensor_type;location;lat;lon;timestamp;P1;durP1;ratioP1;P2;durP2;ratioP2
6828;SDS011;17930;48.592;8.868;2023-05-21T00:01:40;13.53;;;9.47;;
6828;SDS011;17930;48.592;8.868;2023-05-21T00:04:06;15.27;;;10.87;;
6828;SDS011;17930;48.592;8.868;2023-05-21T00:06:33;14.53;;;10.13;;
6828;SDS011;17930;48.592;8.868;2023-05-21T00:09:00;13.90;;;10.50;;
6828;SDS011;17930;48.592;8.868;2023-05-21T00:11:27;15.80;;;10.60;;
6828;SDS011;17930;48.592;8.868;2023-05-21T00:13:55;16.47;;;11.70;;
6828;SDS011;17930;48.592;8.868;2023-05-21T00:16:22;14.23;;;11.03;;
6828;SDS011;17930;48.592;8.868;2023-05-21T00:18:50;14.07;;;10.63;;
6828;SDS011;17930;48.592;8.868;2023-05-21T00:21:18;15.67;;;10.73;;
6828;SDS011;17930;48.592;8.868;2023-05-21T00:23:47;15.30;;;11.17;;
6828;SDS011;17930;48.592;8.868;2023-05-21T00:26:13;15.83;;;11.53;;
6828;SDS011;17930;48.592;8.868;2023-05-21T00:28:40;14.00;;;11.07;;
6828;SDS011;17930;48.592;8.868;2023-05-21T00:31:08;15.10;;;10.70;;
6828;SDS011;17930;48.592;8.868;2023-05-21T00:33:35;15.43;;;10.43;;
6828;SDS011;17930;48.592;8.868;2023-05-21T00:36:01;14.60;;;10.77;;
6828;SDS011;17930;48.592;8.868;2023-05-21T00:38:30;15.37;;;11.03;;
6828;SDS011;17930;48.592;8.868;2023-05-21T00:40:58;12.67;;;10.00;;
6828;SDS011;17930;48.592;8.868;2023-05-21T00:43:25;17.37;;;11.53;;
6828;SDS011;17930;48.592;8.868;2023-05-21T00:45:52;16.67;;;11.73;;
6828;SDS011;17930;48.592;8.868;2023-05-21T00:48:21;14.90;;;11.27;;
6828;SDS011;17930;48.592;8.868;2023-05-21T00:50:49;16.23;;;11.87;;
6828;SDS011;17930;48.592;8.868;2023-05-21T00:53:16;17.63;;;11.57;;
6828;SDS011;17930;48.592;8.868;2023-05-21T00:55:43;13.90;;;10.97;;
6828;SDS011;17930;48.592;8.868;2023-05-21T00:58:10;15.50;;;11.73;;
6828;SDS011;17930;48.592;8.868;2023-05-21T01:00:37;16.93;;;11.13;;
6828;SDS011;17930;48.592;8.868;2023-05-21T01:03:05;16.33;;;11.13;;
6828;SDS011;17930;48.592;8.868;2023-05-21T01:05:33;15.73;;;10.97;;
6828;SDS011;17930;48.592;8.868;2023-05-21T01:08:00;15.67;;;12.27;;
6828;SDS011;17930;48.592;8.868;2023-05-21T01:10:27;15.47;;;11.37;;
6828;SDS011;17930;48.592;8.868;2023-05-21T01:12:56;16.63;;;11.93;;
6828;SDS011;17930;48.592;8.868;2023-05-21T01:15:23;17.00;;;12.33;;
6828;SDS011;17930;48.592;8.868;2023-05-21T01:17:51;16.97;;;12.03;;
6828;SDS011;17930;48.592;8.868;2023-05-21T01:20:19;17.93;;;12.83;;
6828;SDS011;17930;48.592;8.868;2023-05-21T01:22:51;16.60;;;12.43;;
6828;SDS011;17930;48.592;8.868;2023-05-21T01:25:18;15.73;;;11.73;;
6828;SDS011;17930;48.592;8.868;2023-05-21T01:27:45;17.20;;;12.37;;
6828;SDS011;17930;48.592;8.868;2023-05-21T01:30:12;16.73;;;12.47;;
6828;SDS011;17930;48.592;8.868;2023-05-21T01:32:41;16.60;;;12.60;;
6828;SDS011;17930;48.592;8.868;2023-05-21T01:35:14;15.83;;;12.33;;
6828;SDS011;17930;48.592;8.868;2023-05-21T01:37:46;21.00;;;13.37;;
6828;SDS011;17930;48.592;8.868;2023-05-21T01:40:20;17.20;;;12.90;;
6828;SDS011;17930;48.592;8.868;2023-05-21T01:42:50;19.53;;;12.90;;
6828;SDS011;17930;48.592;8.868;2023-05-21T01:45:18;19.37;;;12.57;;
6828;SDS011;17930;48.592;8.868;2023-05-21T01:47:48;18.40;;;12.67;;
6828;SDS011;17930;48.592;8.868;2023-05-21T01:50:17;19.77;;;12.90;;
6828;SDS011;17930;48.592;8.868;2023-05-21T01:52:48;16.23;;;11.77;;
6828;SDS011;17930;48.592;8.868;2023-05-21T01:55:16;17.47;;;12.37;;
6828;SDS011;17930;48.592;8.868;2023-05-21T01:57:44;22.77;;;13.07;;
6828;SDS011;17930;48.592;8.868;2023-05-21T02:00:11;18.33;;;12.57;;
6828;SDS011;17930;48.592;8.868;2023-05-21T02:02:39;19.50;;;13.17;;
6828;SDS011;17930;48.592;8.868;2023-05-21T02:05:06;19.27;;;13.07;;
6828;SDS011;17930;48.592;8.868;2023-05-21T02:07:33;18.17;;;13.63;;
6828;SDS011;17930;48.592;8.868;2023-05-21T02:10:01;18.97;;;14.13;;
6828;SDS011;17930;48.592;8.868;2023-05-21T02:12:28;16.93;;;12.33;;
6828;SDS011;17930;48.592;8.868;2023-05-21T02:14:56;18.03;;;13.53;;
6828;SDS011;17930;48.592;8.868;2023-05-21T02:17:24;20.73;;;13.63;;
6828;SDS011;17930;48.592;8.868;2023-05-21T02:19:54;19.30;;;13.90;;
6828;SDS011;17930;48.592;8.868;2023-05-21T02:22:21;17.23;;;12.90;;
6828;SDS011;17930;48.592;8.868;2023-05-21T02:24:47;18.03;;;13.17;;
6828;SDS011;17930;48.592;8.868;2023-05-21T02:27:14;19.80;;;13.93;;
6828;SDS011;17930;48.592;8.868;2023-05-21T02:29:41;20.23;;;14.43;;
6828;SDS011;17930;48.592;8.868;2023-05-21T02:32:10;20.07;;;13.97;;
6828;SDS011;17930;48.592;8.868;2023-05-21T02:34:36;21.07;;;14.17;;
6828;SDS011;17930;48.592;8.868;2023-05-21T02:37:06;19.47;;;13.27;;
6828;SDS011;17930;48.592;8.868;2023-05-21T02:39:33;20.33;;;14.03;;
6828;SDS011;17930;48.592;8.868;2023-05-21T02:42:00;21.87;;;14.50;;
6828;SDS011;17930;48.592;8.868;2023-05-21T02:44:27;22.53;;;14.40;;
6828;SDS011;17930;48.592;8.868;2023-05-21T02:46:53;19.10;;;14.43;;
6828;SDS011;17930;48.592;8.868;2023-05-21T02:49:21;20.87;;;13.73;;
6828;SDS011;17930;48.592;8.868;2023-05-21T02:51:48;22.57;;;15.03;;
6828;SDS011;17930;48.592;8.868;2023-05-21T02:54:14;19.37;;;14.20;;
6828;SDS011;17930;48.592;8.868;2023-05-21T02:56:41;20.13;;;14.50;;
6828;SDS011;17930;48.592;8.868;2023-05-21T02:59:08;20.17;;;13.33;;
6828;SDS011;17930;48.592;8.868;2023-05-21T03:01:35;18.57;;;13.60;;
6828;SDS011;17930;48.592;8.868;2023-05-21T03:04:01;20.83;;;14.80;;
6828;SDS011;17930;48.592;8.868;2023-05-21T03:06:30;23.53;;;15.67;;
6828;SDS011;17930;48.592;8.868;2023-05-21T03:08:58;20.03;;;14.30;;
6828;SDS011;17930;48.592;8.868;2023-05-21T03:11:25;19.50;;;14.33;;
6828;SDS011;17930;48.592;8.868;2023-05-21T03:13:52;21.93;;;14.70;;
6828;SDS011;17930;48.592;8.868;2023-05-21T03:16:19;22.77;;;15.30;;
6828;SDS011;17930;48.592;8.868;2023-05-21T03:18:46;21.40;;;14.43;;
6828;SDS011;17930;48.592;8.868;2023-05-21T03:21:13;22.53;;;14.93;;
6828;SDS011;17930;48.592;8.868;2023-05-21T03:23:41;23.47;;;14.83;;
6828;SDS011;17930;48.592;8.868;2023-05-21T03:26:08;22.37;;;15.17;;
6828;SDS011;17930;48.592;8.868;2023-05-21T03:28:35;23.43;;;14.47;;
6828;SDS011;17930;48.592;8.868;2023-05-21T03:31:02;22.23;;;15.90;;
6828;SDS011;17930;48.592;8.868;2023-05-21T03:33:29;19.67;;;14.90;;
6828;SDS011;17930;48.592;8.868;2023-05-21T03:35:56;25.07;;;16.33;;
6828;SDS011;17930;48.592;8.868;2023-05-21T03:38:22;20.70;;;15.07;;
6828;SDS011;17930;48.592;8.868;2023-05-21T03:40:50;27.10;;;16.43;;
6828;SDS011;17930;48.592;8.868;2023-05-21T03:43:17;22.00;;;14.80;;
6828;SDS011;17930;48.592;8.868;2023-05-21T03:45:43;24.43;;;15.50;;
6828;SDS011;17930;48.592;8.868;2023-05-21T03:48:10;24.23;;;15.63;;
6828;SDS011;17930;48.592;8.868;2023-05-21T03:50:37;21.30;;;15.20;;
6828;SDS011;17930;48.592;8.868;2023-05-21T03:53:03;23.27;;;15.90;;
6828;SDS011;17930;48.592;8.868;2023-05-21T03:55:30;22.27;;;15.77;;
6828;SDS011;17930;48.592;8.868;2023-05-21T03:57:58;23.20;;;16.10;;
6828;SDS011;17930;48.592;8.868;2023-05-21T04:00:25;22.83;;;15.97;;
6828;SDS011;17930;48.592;8.868;2023-05-21T04:02:51;25.63;;;16.60;;
6828;SDS011;17930;48.592;8.868;2023-05-21T04:05:18;23.20;;;16.23;;
6828;SDS011;17930;48.592;8.868;2023-05-21T04:07:45;21.87;;;15.30;;
6828;SDS011;17930;48.592;8.868;2023-05-21T04:10:12;21.60;;;15.60;;
6828;SDS011;17930;48.592;8.868;2023-05-21T04:12:39;23.97;;;15.67;;
6828;SDS011;17930;48.592;8.868;2023-05-21T04:15:07;24.63;;;15.67;;
6828;SDS011;17930;48.592;8.868;2023-05-21T04:17:35;24.50;;;15.70;;
6828;SDS011;17930;48.592;8.868;2023-05-21T04:20:02;21.47;;;14.67;;
6828;SDS011;17930;48.592;8.868;2023-05-21T04:22:29;22.17;;;14.47;;
6828;SDS011;17930;48.592;8.868;2023-05-21T04:24:55;22.73;;;15.37;;
6828;SDS011;17930;48.592;8.868;2023-05-21T04:27:23;23.53;;;15.03;;
6828;SDS011;17930;48.592;8.868;2023-05-21T04:29:50;25.07;;;15.70;;
6828;SDS011;17930;48.592;8.868;2023-05-21T04:32:20;23.80;;;15.77;;
6828;SDS011;17930;48.592;8.868;2023-05-21T04:34:46;22.23;;;15.07;;
6828;SDS011;17930;48.592;8.868;2023-05-21T04:37:14;26.33;;;14.30;;
6828;SDS011;17930;48.592;8.868;2023-05-21T04:39:41;24.27;;;15.33;;
6828;SDS011;17930;48.592;8.868;2023-05-21T04:42:08;23.83;;;15.27;;
6828;SDS011;17930;48.592;8.868;2023-05-21T04:44:35;22.23;;;15.63;;
6828;SDS011;17930;48.592;8.868;2023-05-21T04:47:03;26.03;;;16.37;;
6828;SDS011;17930;48.592;8.868;2023-05-21T04:49:31;20.40;;;15.03;;
6828;SDS011;17930;48.592;8.868;2023-05-21T04:51:59;25.07;;;16.50;;
6828;SDS011;17930;48.592;8.868;2023-05-21T04:54:25;27.67;;;16.87;;
6828;SDS011;17930;48.592;8.868;2023-05-21T04:56:52;21.20;;;14.57;;
6828;SDS011;17930;48.592;8.868;2023-05-21T04:59:19;23.37;;;15.17;;
6828;SDS011;17930;48.592;8.868;2023-05-21T05:01:46;21.13;;;15.47;;
6828;SDS011;17930;48.592;8.868;2023-05-21T05:04:13;21.03;;;14.87;;
6828;SDS011;17930;48.592;8.868;2023-05-21T05:06:41;21.37;;;15.60;;
6828;SDS011;17930;48.592;8.868;2023-05-21T05:09:08;22.50;;;15.20;;
6828;SDS011;17930;48.592;8.868;2023-05-21T05:11:35;20.53;;;13.67;;
6828;SDS011;17930;48.592;8.868;2023-05-21T05:14:01;20.33;;;14.43;;
6828;SDS011;17930;48.592;8.868;2023-05-21T05:16:28;21.37;;;15.47;;
6828;SDS011;17930;48.592;8.868;2023-05-21T05:18:56;22.33;;;15.40;;
6828;SDS011;17930;48.592;8.868;2023-05-21T05:21:23;23.17;;;14.37;;
6828;SDS011;17930;48.592;8.868;2023-05-21T05:23:51;20.70;;;14.67;;
6828;SDS011;17930;48.592;8.868;2023-05-21T05:26:17;23.00;;;15.17;;
6828;SDS011;17930;48.592;8.868;2023-05-21T05:28:45;18.13;;;13.90;;
6828;SDS011;17930;48.592;8.868;2023-05-21T05:31:12;20.27;;;14.93;;
6828;SDS011;17930;48.592;8.868;2023-05-21T05:33:39;20.00;;;13.97;;
6828;SDS011;17930;48.592;8.868;2023-05-21T05:36:06;17.83;;;13.57;;
6828;SDS011;17930;48.592;8.868;2023-05-21T05:38:33;19.03;;;12.77;;
6828;SDS011;17930;48.592;8.868;2023-05-21T05:41:01;18.40;;;14.00;;
6828;SDS011;17930;48.592;8.868;2023-05-21T05:43:28;20.53;;;13.17;;
6828;SDS011;17930;48.592;8.868;2023-05-21T05:45:54;19.40;;;13.20;;
6828;SDS011;17930;48.592;8.868;2023-05-21T05:48:21;17.60;;;13.17;;
6828;SDS011;17930;48.592;8.868;2023-05-21T05:50:48;18.93;;;13.50;;
6828;SDS011;17930;48.592;8.868;2023-05-21T05:53:18;16.70;;;13.13;;
6828;SDS011;17930;48.592;8.868;2023-05-21T05:55:45;17.17;;;12.67;;
6828;SDS011;17930;48.592;8.868;2023-05-21T05:58:13;17.40;;;13.30;;
6828;SDS011;17930;48.592;8.868;2023-05-21T06:00:40;18.23;;;13.67;;
6828;SDS011;17930;48.592;8.868;2023-05-21T06:03:07;17.83;;;12.63;;
6828;SDS011;17930;48.592;8.868;2023-05-21T06:05:34;16.17;;;12.37;;
6828;SDS011;17930;48.592;8.868;2023-05-21T06:08:00;17.77;;;12.57;;
6828;SDS011;17930;48.592;8.868;2023-05-21T06:10:27;17.57;;;12.90;;
6828;SDS011;17930;48.592;8.868;2023-05-21T06:12:53;19.27;;;13.33;;
6828;SDS011;17930;48.592;8.868;2023-05-21T06:15:21;17.87;;;12.73;;
6828;SDS011;17930;48.592;8.868;2023-05-21T06:17:49;18.13;;;13.40;;
6828;SDS011;17930;48.592;8.868;2023-05-21T06:20:36;16.73;;;12.97;;
6828;SDS011;17930;48.592;8.868;2023-05-21T06:23:03;16.57;;;13.50;;
6828;SDS011;17930;48.592;8.868;2023-05-21T06:25:31;18.40;;;12.47;;
6828;SDS011;17930;48.592;8.868;2023-05-21T06:27:58;19.17;;;13.80;;
6828;SDS011;17930;48.592;8.868;2023-05-21T06:30:26;15.73;;;11.03;;
6828;SDS011;17930;48.592;8.868;2023-05-21T06:32:52;16.13;;;11.97;;
6828;SDS011;17930;48.592;8.868;2023-05-21T06:35:19;14.37;;;11.60;;
6828;SDS011;17930;48.592;8.868;2023-05-21T06:37:46;15.23;;;11.73;;
6828;SDS011;17930;48.592;8.868;2023-05-21T06:40:13;12.37;;;10.67;;
6828;SDS011;17930;48.592;8.868;2023-05-21T06:42:40;14.27;;;11.33;;
6828;SDS011;17930;48.592;8.868;2023-05-21T06:45:07;13.97;;;11.53;;
6828;SDS011;17930;48.592;8.868;2023-05-21T06:47:35;17.13;;;12.57;;
6828;SDS011;17930;48.592;8.868;2023-05-21T06:50:02;14.00;;;10.90;;
6828;SDS011;17930;48.592;8.868;2023-05-21T06:52:29;17.40;;;11.83;;
6828;SDS011;17930;48.592;8.868;2023-05-21T06:54:56;14.57;;;11.40;;
6828;SDS011;17930;48.592;8.868;2023-05-21T06:57:23;12.70;;;11.33;;
6828;SDS011;17930;48.592;8.868;2023-05-21T06:59:50;15.60;;;10.23;;
6828;SDS011;17930;48.592;8.868;2023-05-21T07:02:16;13.70;;;10.73;;
6828;SDS011;17930;48.592;8.868;2023-05-21T07:04:44;11.83;;;10.10;;
6828;SDS011;17930;48.592;8.868;2023-05-21T07:07:12;13.10;;;10.20;;
6828;SDS011;17930;48.592;8.868;2023-05-21T07:09:38;13.07;;;9.87;;
6828;SDS011;17930;48.592;8.868;2023-05-21T07:12:05;12.93;;;9.97;;
6828;SDS011;17930;48.592;8.868;2023-05-21T07:14:33;12.60;;;10.13;;
6828;SDS011;17930;48.592;8.868;2023-05-21T07:16:59;12.83;;;10.57;;
6828;SDS011;17930;48.592;8.868;2023-05-21T07:19:26;9.70;;;8.70;;
6828;SDS011;17930;48.592;8.868;2023-05-21T07:21:54;11.07;;;9.77;;
6828;SDS011;17930;48.592;8.868;2023-05-21T07:24:21;10.17;;;9.07;;
6828;SDS011;17930;48.592;8.868;2023-05-21T07:26:48;10.07;;;8.97;;
6828;SDS011;17930;48.592;8.868;2023-05-21T07:29:15;13.10;;;9.33;;
6828;SDS011;17930;48.592;8.868;2023-05-21T07:31:42;10.60;;;8.60;;
6828;SDS011;17930;48.592;8.868;2023-05-21T07:34:08;12.93;;;9.10;;
6828;SDS011;17930;48.592;8.868;2023-05-21T07:36:35;11.80;;;9.77;;
6828;SDS011;17930;48.592;8.868;2023-05-21T07:39:03;9.90;;;8.70;;
6828;SDS011;17930;48.592;8.868;2023-05-21T07:41:30;11.43;;;9.47;;
6828;SDS011;17930;48.592;8.868;2023-05-21T07:43:57;15.80;;;9.83;;
6828;SDS011;17930;48.592;8.868;2023-05-21T07:46:25;12.53;;;9.60;;
6828;SDS011;17930;48.592;8.868;2023-05-21T07:48:52;12.10;;;9.67;;
6828;SDS011;17930;48.592;8.868;2023-05-21T07:51:19;11.30;;;9.33;;
6828;SDS011;17930;48.592;8.868;2023-05-21T07:53:45;12.50;;;9.67;;
6828;SDS011;17930;48.592;8.868;2023-05-21T07:56:13;11.33;;;9.90;;
6828;SDS011;17930;48.592;8.868;2023-05-21T07:58:40;12.53;;;9.27;;
6828;SDS011;17930;48.592;8.868;2023-05-21T08:01:10;10.90;;;9.57;;
6828;SDS011;17930;48.592;8.868;2023-05-21T08:03:37;10.53;;;8.93;;
6828;SDS011;17930;48.592;8.868;2023-05-21T08:06:03;11.70;;;8.73;;
6828;SDS011;17930;48.592;8.868;2023-05-21T08:08:30;12.97;;;10.20;;
6828;SDS011;17930;48.592;8.868;2023-05-21T08:10:57;11.37;;;9.23;;
6828;SDS011;17930;48.592;8.868;2023-05-21T08:13:25;11.50;;;9.50;;
6828;SDS011;17930;48.592;8.868;2023-05-21T08:15:52;12.47;;;10.33;;
6828;SDS011;17930;48.592;8.868;2023-05-21T08:18:19;11.43;;;9.83;;
6828;SDS011;17930;48.592;8.868;2023-05-21T08:20:48;12.83;;;9.47;;
6828;SDS011;17930;48.592;8.868;2023-05-21T08:23:15;13.97;;;8.67;;
6828;SDS011;17930;48.592;8.868;2023-05-21T08:25:42;12.37;;;8.90;;
6828;SDS011;17930;48.592;8.868;2023-05-21T08:28:09;10.47;;;9.27;;
6828;SDS011;17930;48.592;8.868;2023-05-21T08:30:37;14.27;;;8.67;;
6828;SDS011;17930;48.592;8.868;2023-05-21T08:33:03;12.57;;;8.73;;
6828;SDS011;17930;48.592;8.868;2023-05-21T08:35:30;13.43;;;9.73;;
6828;SDS011;17930;48.592;8.868;2023-05-21T08:37:57;9.97;;;8.60;;
6828;SDS011;17930;48.592;8.868;2023-05-21T08:40:23;11.13;;;8.03;;
6828;SDS011;17930;48.592;8.868;2023-05-21T08:42:50;10.50;;;8.93;;
6828;SDS011;17930;48.592;8.868;2023-05-21T08:45:18;10.97;;;9.10;;
6828;SDS011;17930;48.592;8.868;2023-05-21T08:47:47;10.63;;;9.00;;
6828;SDS011;17930;48.592;8.868;2023-05-21T08:50:20;11.13;;;9.03;;
6828;SDS011;17930;48.592;8.868;2023-05-21T08:52:49;10.77;;;9.30;;
6828;SDS011;17930;48.592;8.868;2023-05-21T08:55:16;10.33;;;8.00;;
6828;SDS011;17930;48.592;8.868;2023-05-21T08:57:43;11.23;;;8.87;;
6828;SDS011;17930;48.592;8.868;2023-05-21T09:00:10;9.83;;;8.40;;
6828;SDS011;17930;48.592;8.868;2023-05-21T09:02:38;9.53;;;8.23;;
6828;SDS011;17930;48.592;8.868;2023-05-21T09:05:09;9.67;;;8.03;;
6828;SDS011;17930;48.592;8.868;2023-05-21T09:07:38;10.43;;;8.00;;
6828;SDS011;17930;48.592;8.868;2023-05-21T09:10:10;8.60;;;7.40;;
6828;SDS011;17930;48.592;8.868;2023-05-21T09:12:38;9.73;;;7.90;;
6828;SDS011;17930;48.592;8.868;2023-05-21T09:15:05;8.47;;;7.43;;
6828;SDS011;17930;48.592;8.868;2023-05-21T09:17:33;8.27;;;7.20;;
6828;SDS011;17930;48.592;8.868;2023-05-21T09:20:03;8.93;;;8.00;;
6828;SDS011;17930;48.592;8.868;2023-05-21T09:22:35;8.73;;;7.70;;
6828;SDS011;17930;48.592;8.868;2023-05-21T09:25:06;12.80;;;8.17;;
6828;SDS011;17930;48.592;8.868;2023-05-21T09:27:34;10.57;;;8.20;;
6828;SDS011;17930;48.592;8.868;2023-05-21T09:30:01;8.60;;;7.10;;
6828;SDS011;17930;48.592;8.868;2023-05-21T09:32:28;9.77;;;7.50;;
6828;SDS011;17930;48.592;8.868;2023-05-21T09:34:55;9.43;;;7.30;;
6828;SDS011;17930;48.592;8.868;2023-05-21T09:37:22;8.93;;;7.47;;
6828;SDS011;17930;48.592;8.868;2023-05-21T09:39:50;7.93;;;7.00;;
6828;SDS011;17930;48.592;8.868;2023-05-21T09:42:19;13.93;;;8.50;;
6828;SDS011;17930;48.592;8.868;2023-05-21T09:44:46;7.90;;;7.10;;
6828;SDS011;17930;48.592;8.868;2023-05-21T09:47:18;8.83;;;7.93;;
6828;SDS011;17930;48.592;8.868;2023-05-21T09:49:45;8.77;;;7.33;;
6828;SDS011;17930;48.592;8.868;2023-05-21T09:52:12;8.30;;;7.13;;
6828;SDS011;17930;48.592;8.868;2023-05-21T09:54:38;10.03;;;8.27;;
6828;SDS011;17930;48.592;8.868;2023-05-21T09:57:06;7.30;;;6.60;;
6828;SDS011;17930;48.592;8.868;2023-05-21T09:59:37;8.00;;;7.20;;
6828;SDS011;17930;48.592;8.868;2023-05-21T10:02:12;8.00;;;7.20;;
6828;SDS011;17930;48.592;8.868;2023-05-21T10:04:43;7.53;;;6.70;;
6828;SDS011;17930;48.592;8.868;2023-05-21T10:07:13;8.80;;;6.97;;
6828;SDS011;17930;48.592;8.868;2023-05-21T10:09:43;7.57;;;6.70;;
6828;SDS011;17930;48.592;8.868;2023-05-21T10:12:13;9.60;;;6.87;;
6828;SDS011;17930;48.592;8.868;2023-05-21T10:14:43;8.40;;;7.00;;
6828;SDS011;17930;48.592;8.868;2023-05-21T10:17:14;11.33;;;7.33;;
6828;SDS011;17930;48.592;8.868;2023-05-21T10:19:41;10.40;;;7.83;;
6828;SDS011;17930;48.592;8.868;2023-05-21T10:22:10;8.53;;;7.60;;
6828;SDS011;17930;48.592;8.868;2023-05-21T10:24:38;7.90;;;7.10;;
6828;SDS011;17930;48.592;8.868;2023-05-21T10:27:06;9.43;;;7.50;;
6828;SDS011;17930;48.592;8.868;2023-05-21T10:29:34;9.60;;;7.23;;
6828;SDS011;17930;48.592;8.868;2023-05-21T10:32:03;8.03;;;7.20;;
6828;SDS011;17930;48.592;8.868;2023-05-21T10:34:31;11.07;;;8.83;;
6828;SDS011;17930;48.592;8.868;2023-05-21T10:36:58;10.63;;;7.53;;
6828;SDS011;17930;48.592;8.868;2023-05-21T10:39:27;8.30;;;7.23;;
6828;SDS011;17930;48.592;8.868;2023-05-21T10:41:56;10.37;;;7.23;;
6828;SDS011;17930;48.592;8.868;2023-05-21T10:44:39;9.80;;;8.10;;
6828;SDS011;17930;48.592;8.868;2023-05-21T10:47:19;9.43;;;8.43;;
6828;SDS011;17930;48.592;8.868;2023-05-21T10:50:08;8.87;;;7.97;;
6828;SDS011;17930;48.592;8.868;2023-05-21T10:52:54;9.77;;;7.93;;
6828;SDS011;17930;48.592;8.868;2023-05-21T10:55:35;9.20;;;7.63;;
6828;SDS011;17930;48.592;8.868;2023-05-21T11:01:21;10.20;;;7.77;;
6828;SDS011;17930;48.592;8.868;2023-05-21T11:03:48;8.60;;;7.43;;
6828;SDS011;17930;48.592;8.868;2023-05-21T11:06:21;8.13;;;7.40;;
6828;SDS011;17930;48.592;8.868;2023-05-21T11:08:49;8.15;;;6.90;;
6828;SDS011;17930;48.592;8.868;2023-05-21T11:17:01;9.23;;;8.33;;
6828;SDS011;17930;48.592;8.868;2023-05-21T11:19:35;8.85;;;7.95;;
6828;SDS011;17930;48.592;8.868;2023-05-21T11:22:06;8.63;;;7.70;;
6828;SDS011;17930;48.592;8.868;2023-05-21T11:24:39;9.23;;;8.32;;
6828;SDS011;17930;48.592;8.868;2023-05-21T11:27:06;8.67;;;7.40;;
6828;SDS011;17930;48.592;8.868;2023-05-21T11:29:39;8.33;;;7.43;;
6828;SDS011;17930;48.592;8.868;2023-05-21T11:32:11;9.43;;;7.33;;
6828;SDS011;17930;48.592;8.868;2023-05-21T11:34:40;8.57;;;7.40;;
6828;SDS011;17930;48.592;8.868;2023-05-21T11:37:23;8.23;;;7.43;;
6828;SDS011;17930;48.592;8.868;2023-05-21T11:39:54;8.47;;;7.37;;
6828;SDS011;17930;48.592;8.868;2023-05-21T11:42:31;9.33;;;6.90;;
6828;SDS011;17930;48.592;8.868;2023-05-21T11:44:59;7.87;;;6.80;;
6828;SDS011;17930;48.592;8.868;2023-05-21T11:47:28;9.97;;;6.97;;
6828;SDS011;17930;48.592;8.868;2023-05-21T11:49:57;7.73;;;6.80;;
6828;SDS011;17930;48.592;8.868;2023-05-21T11:52:24;7.33;;;6.63;;
6828;SDS011;17930;48.592;8.868;2023-05-21T11:54:52;6.47;;;5.80;;
6828;SDS011;17930;48.592;8.868;2023-05-21T11:57:19;6.37;;;5.77;;
6828;SDS011;17930;48.592;8.868;2023-05-21T11:59:47;6.77;;;5.77;;
6828;SDS011;17930;48.592;8.868;2023-05-21T12:02:16;6.63;;;5.93;;
6828;SDS011;17930;48.592;8.868;2023-05-21T12:04:45;8.00;;;6.17;;
6828;SDS011;17930;48.592;8.868;2023-05-21T12:07:13;7.90;;;6.03;;
6828;SDS011;17930;48.592;8.868;2023-05-21T12:09:41;5.47;;;4.97;;
6828;SDS011;17930;48.592;8.868;2023-05-21T12:12:09;6.40;;;5.80;;
6828;SDS011;17930;48.592;8.868;2023-05-21T12:14:37;7.00;;;5.00;;
6828;SDS011;17930;48.592;8.868;2023-05-21T12:17:05;5.83;;;5.23;;
6828;SDS011;17930;48.592;8.868;2023-05-21T12:19:32;7.93;;;5.77;;
6828;SDS011;17930;48.592;8.868;2023-05-21T12:22:01;6.57;;;5.33;;
6828;SDS011;17930;48.592;8.868;2023-05-21T12:24:28;8.10;;;5.70;;
6828;SDS011;17930;48.592;8.868;2023-05-21T12:26:55;5.63;;;5.13;;
6828;SDS011;17930;48.592;8.868;2023-05-21T12:29:24;5.77;;;5.17;;
6828;SDS011;17930;48.592;8.868;2023-05-21T12:31:51;6.13;;;5.53;;
6828;SDS011;17930;48.592;8.868;2023-05-21T12:37:07;5.70;;;5.07;;
6828;SDS011;17930;48.592;8.868;2023-05-21T12:39:37;6.43;;;5.57;;
6828;SDS011;17930;48.592;8.868;2023-05-21T12:42:05;6.57;;;5.40;;
6828;SDS011;17930;48.592;8.868;2023-05-21T12:44:32;5.77;;;5.27;;
6828;SDS011;17930;48.592;8.868;2023-05-21T12:46:59;6.23;;;5.60;;
6828;SDS011;17930;48.592;8.868;2023-05-21T12:49:30;6.00;;;5.40;;
6828;SDS011;17930;48.592;8.868;2023-05-21T12:51:58;5.77;;;5.07;;
6828;SDS011;17930;48.592;8.868;2023-05-21T12:54:28;5.50;;;4.97;;
6828;SDS011;17930;48.592;8.868;2023-05-21T12:56:55;7.77;;;5.27;;
6828;SDS011;17930;48.592;8.868;2023-05-21T12:59:22;5.17;;;4.67;;
6828;SDS011;17930;48.592;8.868;2023-05-21T13:01:50;6.13;;;5.07;;
6828;SDS011;17930;48.592;8.868;2023-05-21T13:04:18;5.80;;;5.20;;
6828;SDS011;17930;48.592;8.868;2023-05-21T13:06:44;6.20;;;5.60;;
6828;SDS011;17930;48.592;8.868;2023-05-21T13:09:11;6.33;;;5.73;;
6828;SDS011;17930;48.592;8.868;2023-05-21T13:11:39;6.27;;;5.63;;
6828;SDS011;17930;48.592;8.868;2023-05-21T13:14:05;5.40;;;4.90;;
6828;SDS011;17930;48.592;8.868;2023-05-21T13:16:32;4.70;;;4.23;;
6828;SDS011;17930;48.592;8.868;2023-05-21T13:18:59;5.13;;;4.63;;
6828;SDS011;17930;48.592;8.868;2023-05-21T13:21:25;7.53;;;4.47;;
6828;SDS011;17930;48.592;8.868;2023-05-21T13:23:52;5.27;;;4.77;;
6828;SDS011;17930;48.592;8.868;2023-05-21T13:26:18;5.57;;;5.07;;
6828;SDS011;17930;48.592;8.868;2023-05-21T13:28:46;4.93;;;4.17;;
6828;SDS011;17930;48.592;8.868;2023-05-21T13:31:13;7.10;;;4.80;;
6828;SDS011;17930;48.592;8.868;2023-05-21T13:33:40;4.70;;;4.20;;
6828;SDS011;17930;48.592;8.868;2023-05-21T13:36:07;5.90;;;5.13;;
6828;SDS011;17930;48.592;8.868;2023-05-21T13:38:34;5.40;;;4.90;;
6828;SDS011;17930;48.592;8.868;2023-05-21T13:41:00;6.30;;;5.20;;
6828;SDS011;17930;48.592;8.868;2023-05-21T13:43:27;5.90;;;5.20;;
6828;SDS011;17930;48.592;8.868;2023-05-21T13:45:55;7.17;;;5.60;;
6828;SDS011;17930;48.592;8.868;2023-05-21T13:48:21;5.67;;;5.07;;
6828;SDS011;17930;48.592;8.868;2023-05-21T13:50:48;6.40;;;5.03;;
6828;SDS011;17930;48.592;8.868;2023-05-21T13:53:15;6.57;;;5.60;;
6828;SDS011;17930;48.592;8.868;2023-05-21T13:55:41;6.20;;;5.60;;
6828;SDS011;17930;48.592;8.868;2023-05-21T13:58:08;6.87;;;5.47;;
6828;SDS011;17930;48.592;8.868;2023-05-21T14:00:35;6.40;;;5.33;;
6828;SDS011;17930;48.592;8.868;2023-05-21T14:03:03;7.47;;;5.17;;
6828;SDS011;17930;48.592;8.868;2023-05-21T14:05:31;5.90;;;5.27;;
6828;SDS011;17930;48.592;8.868;2023-05-21T14:07:58;5.57;;;5.07;;
6828;SDS011;17930;48.592;8.868;2023-05-21T14:10:25;8.03;;;5.00;;
6828;SDS011;17930;48.592;8.868;2023-05-21T14:12:52;6.60;;;5.17;;
6828;SDS011;17930;48.592;8.868;2023-05-21T14:15:19;7.07;;;5.50;;
6828;SDS011;17930;48.592;8.868;2023-05-21T14:17:45;6.00;;;5.40;;
6828;SDS011;17930;48.592;8.868;2023-05-21T14:20:13;6.20;;;5.40;;
6828;SDS011;17930;48.592;8.868;2023-05-21T14:22:40;7.03;;;5.00;;
6828;SDS011;17930;48.592;8.868;2023-05-21T14:25:07;6.70;;;5.23;;
6828;SDS011;17930;48.592;8.868;2023-05-21T14:27:34;7.60;;;5.60;;
6828;SDS011;17930;48.592;8.868;2023-05-21T14:30:02;9.13;;;5.30;;
6828;SDS011;17930;48.592;8.868;2023-05-21T14:32:29;5.63;;;5.03;;
6828;SDS011;17930;48.592;8.868;2023-05-21T14:34:56;5.23;;;4.73;;
6828;SDS011;17930;48.592;8.868;2023-05-21T14:37:25;8.43;;;5.07;;
6828;SDS011;17930;48.592;8.868;2023-05-21T14:39:51;6.00;;;5.40;;
6828;SDS011;17930;48.592;8.868;2023-05-21T14:42:18;6.17;;;5.37;;
6828;SDS011;17930;48.592;8.868;2023-05-21T14:44:45;6.00;;;5.13;;
6828;SDS011;17930;48.592;8.868;2023-05-21T14:47:11;5.67;;;5.07;;
6828;SDS011;17930;48.592;8.868;2023-05-21T14:49:43;5.83;;;5.27;;
6828;SDS011;17930;48.592;8.868;2023-05-21T14:52:11;6.33;;;5.40;;
6828;SDS011;17930;48.592;8.868;2023-05-21T14:54:39;7.57;;;5.40;;
6828;SDS011;17930;48.592;8.868;2023-05-21T14:57:05;6.80;;;5.10;;
6828;SDS011;17930;48.592;8.868;2023-05-21T14:59:32;6.67;;;5.83;;
6828;SDS011;17930;48.592;8.868;2023-05-21T15:01:59;6.83;;;5.23;;